Kruisland, Netherlands
Current Conditions -  °F | °C
As of 10:55 AM on Wednesday 26 Nov 2014 (Local Time) from EHWO Reporting Station
Haze Haze  
Wind Chill: 38°   Ceiling: 2200
Heat Index: 43°   Visibility: 5mi
Dew Point: 39°   Wind: 8mph
Humidity: 87%   Direction: 90°E
Pressure: 29.94"   Gusts: NA
Location:  51.57°N, 4.41°E
Report Text: EHWO 260955Z AUTO 09007KT 8000 BR OVC022 06/04 Q1014 WHT 09008KT 8000 SCT022 BKN080 OVC120
Loading
Personal Weather Stations






























Interactive Weather Map New forecast layout! Learn more

10-Day Weather Forecast

Advertisements
Track Severe Weather on mobile